Warning: Javascript must be enabled to use all the features on this page!


Page Loading - Please Wait...

* We've detected you're using a mobile device. Find our Next Generation Station Page here.
Click to hideNews Bulletins

Peak Streamflow for the Nation

USGS 05432300 ROCK BRANCH NEAR MINERAL POINT, WI

Iowa County, Wisconsin
Hydrologic Unit Code 07090003
Latitude  42°50'02", Longitude  90°09'15" NAD27
Drainage area 4.83  square miles
Output formats
Table
Graph
Tab-separated file
peakfq (watstore) format
Reselect output format
Water
Year
Date Gage
Height
(feet)
Stream-
flow
(cfs)
1959 1959-04 14.52Bd 730Bd
1960 1960-03-29 16.14 1,160
1961 1961-03-26 12.54 330
1962 1961-11-02 13.58 520
1963 1963-03-17 12.67 350
1964 1964-04-02 11.04 135
1965 1965-03-01 12.82 380
1966 1966-02-08 12.45 315
1967 1967-01-24 16.19 1,180
1968 1968-01-31 11.70 210
1969 1969-06-29 12.92 400
1970 1970-05-12 11.10 130
1971 1971-03-27 11.28 150
1972 1972-08-11 13.75 570
1973 1973-03-07 12.09 260
1974 1974-03-04 11.73 210
1975 1975-03-22 12.03 250
1976 1976-03-12 12.28 290
1977 1977-07-18 13.20 450
1978 1978-07-01 13.00 410
1979 1979-08-10 11.23 145
1980 1980-02-06 11.40 160
1981 1981-08-28 14.205 670
1982 1982-02-28 11.40 160
1983 1983-02-10 11.41 161
1984 1984-07-10 12.79 375
1985 1985-02-25 11.57 185
1986 1986   1004,Bm
1987 1987   1004,Bm
1988 1988   1004,Bm
1989 1989-03-11 11.89 225
1990 1990-06-29 18.41 1,250
1991 1991-04-13 11.31 151
1992 1991-11-01 11.785 210
1993 1993-07-05 22.63 3,100
1994 1994-05-24 17.74 1,570
1995 1995-03-11 10.72 55.0
1996 1996-08-06 11.96 175
1997 1997-02-18 12.21 275
1998 1998-06-18 11.18 90.0
1999 1999-05-17 12.92 400
2000 2000-06-01 11.033 78.0
2004 2004-05-22 10.743 28.02
2005 2005-03-06 12.31 196
2006 2006-04-16 11.10 63.0
2007 2007-07-04 12.211 180
2008 2008-06-12 13.051 289
2009 2009-07-28 13.19 297
2010 2010-08-13 12.40 192
2011 2011-07-11 12.61 218
2012 2012 11.214,Bm 63.64,Bm
2013 2013-06-22 13.901 418
2015 2015-03-10 11.561 98.0
2016 2016-07-23 13.52 293
2017 2017-07-22 13.81 440
2018 2018-02-20 13.295 256
2020 2019-10-03 13.98 381
2021 2020-10-23 11.814 74.74
2022 2022-08-08 12.425 135
2023 2023-02-28 12.02 93.0
?
  Peak Gage-Height Qualification Codes.
?
  Peak Streamflow Qualification Codes.